createdAt,value
2018-07-20T00:00:13.811Z,86.54
2018-07-20T00:02:42.758Z,86.72
2018-07-20T00:05:11.753Z,86.50
2018-07-20T00:07:40.995Z,87.12
2018-07-20T00:10:09.843Z,87.18
2018-07-20T00:12:38.857Z,87.64
2018-07-20T00:15:08.394Z,87.10
2018-07-20T00:17:37.471Z,88.04
2018-07-20T00:20:06.607Z,88.23
2018-07-20T00:22:36.274Z,87.67
2018-07-20T00:25:05.376Z,87.87
2018-07-20T00:27:34.362Z,87.63
2018-07-20T00:30:03.291Z,88.13
2018-07-20T00:32:32.449Z,87.79
2018-07-20T00:35:02.313Z,87.57
2018-07-20T00:37:31.587Z,87.68
2018-07-20T00:40:00.463Z,87.30
2018-07-20T00:42:29.776Z,87.38
2018-07-20T00:44:58.634Z,86.29
2018-07-20T00:47:27.437Z,85.53
2018-07-20T00:49:56.248Z,85.77
2018-07-20T00:52:26.678Z,85.33
2018-07-20T00:54:55.871Z,84.88
2018-07-20T00:57:24.943Z,84.85
2018-07-20T00:59:53.614Z,84.40
2018-07-20T01:02:22.656Z,84.35
2018-07-20T01:04:51.745Z,84.13
2018-07-20T01:07:21.393Z,83.81
2018-07-20T01:09:51.469Z,83.71
2018-07-20T01:12:20.238Z,83.24
2018-07-20T01:14:49.767Z,83.65
2018-07-20T01:17:18.759Z,82.50
2018-07-20T01:19:47.618Z,83.21
2018-07-20T01:22:16.779Z,83.08
2018-07-20T01:24:46.432Z,82.57
2018-07-20T01:29:46.271Z,82.56
2018-07-20T01:32:15.215Z,82.43
2018-07-20T01:34:44.179Z,82.83
2018-07-20T01:37:13.687Z,83.02
2018-07-20T01:39:42.683Z,82.63
2018-07-20T01:42:12.606Z,82.71
2018-07-20T01:44:42.142Z,82.57
2018-07-20T01:47:11.246Z,82.76
2018-07-20T01:49:40.286Z,83.09
2018-07-20T01:52:09.567Z,83.16
2018-07-20T01:54:38.763Z,83.18
2018-07-20T01:57:07.791Z,82.80
2018-07-20T01:59:36.698Z,82.95
2018-07-20T02:02:05.511Z,82.62
2018-07-20T02:04:34.620Z,82.05
2018-07-20T02:07:03.772Z,81.99
2018-07-20T02:09:33.062Z,82.42
2018-07-20T02:12:02.141Z,81.94
2018-07-20T02:14:31.348Z,81.94
2018-07-20T02:17:00.857Z,82.01
2018-07-20T02:19:31.093Z,82.01
2018-07-20T02:22:00.609Z,81.21
2018-07-20T02:24:29.589Z,81.48
2018-07-20T02:26:58.872Z,81.93
2018-07-20T02:29:28.164Z,81.62
2018-07-20T02:31:57.080Z,82.40
2018-07-20T02:34:26.275Z,81.84
2018-07-20T02:36:55.519Z,81.97
2018-07-20T02:39:24.658Z,81.61
2018-07-20T02:41:54.203Z,82.76
2018-07-20T02:44:23.862Z,82.27
2018-07-20T02:46:52.704Z,82.37
2018-07-20T02:49:22.620Z,83.07
2018-07-20T02:51:52.132Z,82.08
2018-07-20T02:54:21.267Z,82.80
2018-07-20T02:56:50.196Z,83.01
2018-07-20T02:59:19.775Z,83.24
2018-07-20T03:01:48.618Z,82.98
2018-07-20T03:04:17.563Z,83.87
2018-07-20T03:06:46.647Z,83.88
2018-07-20T03:09:15.577Z,84.18
2018-07-20T03:11:44.718Z,83.75
2018-07-20T03:14:14.659Z,84.16
2018-07-20T03:16:43.616Z,84.11
2018-07-20T03:19:12.475Z,84.28
2018-07-20T03:21:42.123Z,83.81
2018-07-20T03:24:11.809Z,84.62
2018-07-20T03:26:40.905Z,84.44
2018-07-20T03:29:09.959Z,84.74
2018-07-20T03:31:39.142Z,83.50
2018-07-20T03:34:07.900Z,83.62
2018-07-20T03:36:37.500Z,83.76
2018-07-20T03:39:08.639Z,83.24
2018-07-20T03:41:38.571Z,82.86
2018-07-20T03:44:08.239Z,82.19
2018-07-20T03:46:37.715Z,81.64
2018-07-20T03:49:07.453Z,81.62
2018-07-20T03:51:36.379Z,81.16
2018-07-20T03:54:05.211Z,80.47
2018-07-20T03:56:34.731Z,80.10
2018-07-20T03:59:04.435Z,79.77
2018-07-20T04:01:34.029Z,79.19
2018-07-20T04:04:03.222Z,78.84
2018-07-20T04:06:32.303Z,78.34
2018-07-20T04:09:01.497Z,77.95
2018-07-20T04:11:31.223Z,77.06
2018-07-20T04:14:00.494Z,76.97
2018-07-20T04:16:30.453Z,76.06
2018-07-20T04:19:00.476Z,75.12
2018-07-20T04:21:30.496Z,73.10
2018-07-20T04:24:00.016Z,70.76
2018-07-20T04:26:29.602Z,68.43
2018-07-20T04:28:58.984Z,66.44
2018-07-20T04:31:27.885Z,66.30
2018-07-20T04:33:56.998Z,65.81
2018-07-20T04:36:26.134Z,65.48
2018-07-20T04:38:55.158Z,66.22
2018-07-20T04:41:24.573Z,66.59
2018-07-20T04:43:54.132Z,65.92
2018-07-20T04:46:23.482Z,66.19
2018-07-20T04:48:53.010Z,66.83
2018-07-20T04:51:22.203Z,68.11
2018-07-20T04:53:52.123Z,68.42
2018-07-20T04:56:21.027Z,69.70
2018-07-20T04:58:52.578Z,70.46
2018-07-20T05:01:21.336Z,71.23
2018-07-20T05:03:51.295Z,72.20
2018-07-20T05:06:20.129Z,72.08
2018-07-20T05:08:49.796Z,71.89
2018-07-20T05:11:19.564Z,71.96
2018-07-20T05:13:48.680Z,71.19
2018-07-20T05:16:20.143Z,69.97
2018-07-20T05:18:49.302Z,69.14
2018-07-20T05:21:18.424Z,68.80
2018-07-20T05:23:47.810Z,68.51
2018-07-20T05:26:17.134Z,66.36
2018-07-20T05:28:46.050Z,65.04
2018-07-20T05:31:15.489Z,61.77
2018-07-20T05:33:45.400Z,60.47
2018-07-20T05:36:15.049Z,59.59
2018-07-20T05:38:44.995Z,59.00
2018-07-20T05:41:14.563Z,57.37
2018-07-20T05:43:44.610Z,56.43
2018-07-20T05:46:15.042Z,56.45
2018-07-20T05:48:44.285Z,54.54
2018-07-20T05:51:13.695Z,53.71
2018-07-20T05:53:42.858Z,53.22
2018-07-20T05:56:12.037Z,53.16
2018-07-20T05:58:41.683Z,51.57
2018-07-20T06:01:10.417Z,51.33
2018-07-20T06:03:39.736Z,52.06
2018-07-20T06:06:08.454Z,53.48
2018-07-20T06:08:37.375Z,54.06
2018-07-20T06:11:06.912Z,54.42
2018-07-20T06:13:36.157Z,54.73
2018-07-20T06:16:06.011Z,53.97
2018-07-20T06:18:35.549Z,52.94
2018-07-20T06:21:04.741Z,53.09
2018-07-20T06:23:34.067Z,51.58
2018-07-20T06:26:03.204Z,51.39
2018-07-20T06:28:33.055Z,50.76
2018-07-20T06:31:02.066Z,50.64
2018-07-20T06:33:31.044Z,50.77
2018-07-20T06:36:00.498Z,52.93
2018-07-20T06:38:29.654Z,53.35
2018-07-20T06:40:58.285Z,54.53
2018-07-20T06:43:27.829Z,55.00
2018-07-20T06:45:56.904Z,55.46
2018-07-20T06:48:26.304Z,54.84
2018-07-20T06:50:56.907Z,53.66
2018-07-20T06:53:25.671Z,53.00
2018-07-20T06:55:54.655Z,51.03
2018-07-20T06:58:23.678Z,51.00
2018-07-20T07:00:53.363Z,48.77
2018-07-20T07:03:22.557Z,46.30
2018-07-20T07:05:51.854Z,43.92
2018-07-20T07:08:20.972Z,41.82
2018-07-20T07:10:50.176Z,40.87
2018-07-20T07:13:20.272Z,42.20
2018-07-20T07:15:49.175Z,43.43
2018-07-20T07:18:18.378Z,43.14
2018-07-20T07:20:47.380Z,42.31
2018-07-20T07:23:16.471Z,42.97
2018-07-20T07:25:45.570Z,43.42
2018-07-20T07:28:14.795Z,43.00
2018-07-20T07:30:43.868Z,43.86
2018-07-20T07:33:12.957Z,43.92
2018-07-20T07:35:42.486Z,45.78
2018-07-20T07:38:11.438Z,45.96
2018-07-20T07:40:43.682Z,48.90
2018-07-20T07:43:13.104Z,49.56
2018-07-20T07:45:42.363Z,49.27
2018-07-20T07:48:11.759Z,48.75
2018-07-20T07:50:40.737Z,47.13
2018-07-20T07:53:10.454Z,46.71
2018-07-20T07:55:39.596Z,45.69
2018-07-20T07:58:09.894Z,45.16
2018-07-20T08:00:39.274Z,44.03
2018-07-20T08:03:09.807Z,43.38
2018-07-20T08:05:40.216Z,41.10
2018-07-20T08:08:10.676Z,42.40
2018-07-20T08:10:39.662Z,39.28
2018-07-20T08:13:08.595Z,39.38
2018-07-20T08:15:39.673Z,38.78
2018-07-20T08:18:09.488Z,38.38
2018-07-20T08:20:38.748Z,37.22
2018-07-20T08:23:08.478Z,38.21
2018-07-20T08:25:37.915Z,41.38
2018-07-20T08:28:07.385Z,42.87
2018-07-20T08:30:37.159Z,43.27
2018-07-20T08:33:06.712Z,44.49
2018-07-20T08:35:36.470Z,44.52
2018-07-20T08:38:05.650Z,44.11
2018-07-20T08:40:34.535Z,44.59
2018-07-20T08:43:03.723Z,44.13
2018-07-20T08:45:33.153Z,42.96
2018-07-20T08:48:02.425Z,42.69
2018-07-20T08:50:31.419Z,42.23
2018-07-20T08:53:00.658Z,43.30
2018-07-20T08:55:29.790Z,44.28
2018-07-20T08:57:59.386Z,42.68
2018-07-20T09:00:28.458Z,40.94
2018-07-20T09:02:57.400Z,40.63
2018-07-20T09:05:26.400Z,39.27
2018-07-20T09:07:55.474Z,39.74
2018-07-20T09:10:24.511Z,39.17
2018-07-20T09:12:53.581Z,41.25
2018-07-20T09:15:22.919Z,43.69
2018-07-20T09:17:51.850Z,43.20
2018-07-20T09:20:20.887Z,42.02
2018-07-20T09:22:50.222Z,40.98
2018-07-20T09:25:19.186Z,41.91
2018-07-20T09:27:48.178Z,40.53
2018-07-20T09:30:17.720Z,40.17
2018-07-20T09:32:46.653Z,40.12
2018-07-20T09:35:16.184Z,40.24
2018-07-20T09:37:45.601Z,40.70
2018-07-20T09:40:15.194Z,39.61
2018-07-20T09:42:44.635Z,40.86
2018-07-20T09:45:14.123Z,41.42
2018-07-20T09:47:43.082Z,39.70
2018-07-20T09:50:12.122Z,39.04
2018-07-20T09:52:41.509Z,37.83
2018-07-20T09:55:10.498Z,38.33
2018-07-20T09:57:39.490Z,39.02
2018-07-20T10:00:09.415Z,38.73
2018-07-20T10:02:38.267Z,39.30
2018-07-20T10:05:07.370Z,39.23
2018-07-20T10:07:36.601Z,39.91
2018-07-20T10:10:05.504Z,40.47
2018-07-20T10:12:34.550Z,40.39
2018-07-20T10:15:03.702Z,39.34
2018-07-20T10:17:32.550Z,39.99
2018-07-20T10:20:01.878Z,40.81
2018-07-20T10:22:31.070Z,40.38
2018-07-20T10:25:00.072Z,39.85
2018-07-20T10:27:29.255Z,40.88
2018-07-20T10:29:58.521Z,41.46
2018-07-20T10:32:27.757Z,41.15
2018-07-20T10:34:56.832Z,40.36
2018-07-20T10:37:25.874Z,41.42
2018-07-20T10:39:55.051Z,40.25
2018-07-20T10:42:23.950Z,41.52
2018-07-20T10:44:53.541Z,40.82
2018-07-20T10:47:22.551Z,40.51
2018-07-20T10:49:51.549Z,41.21
2018-07-20T10:52:20.506Z,41.60
2018-07-20T10:54:49.210Z,41.52
2018-07-20T10:57:18.041Z,40.84
2018-07-20T10:59:47.474Z,40.54
2018-07-20T11:02:16.783Z,40.45
2018-07-20T11:04:46.224Z,40.87
2018-07-20T11:07:15.186Z,42.05
2018-07-20T11:09:44.212Z,42.64
2018-07-20T11:12:13.287Z,43.86
2018-07-20T11:14:42.867Z,43.96
2018-07-20T11:17:11.707Z,43.59
2018-07-20T11:19:40.608Z,43.09
2018-07-20T11:22:10.446Z,41.77
2018-07-20T11:24:39.536Z,43.28
2018-07-20T11:27:08.306Z,45.06
2018-07-20T11:29:37.326Z,45.17
2018-07-20T11:32:06.201Z,45.36
2018-07-20T11:34:35.201Z,46.00
2018-07-20T11:37:04.301Z,46.07
2018-07-20T11:39:33.308Z,45.40
2018-07-20T11:42:02.586Z,44.75
2018-07-20T11:44:32.444Z,44.11
2018-07-20T11:47:02.014Z,44.39
2018-07-20T11:49:32.054Z,44.72
2018-07-20T11:52:01.263Z,45.18
2018-07-20T11:54:30.444Z,45.47
2018-07-20T11:57:00.347Z,45.38
2018-07-20T11:59:30.168Z,44.90
2018-07-20T12:01:59.344Z,44.61
2018-07-20T12:04:28.542Z,44.83
2018-07-20T12:06:57.667Z,45.52
2018-07-20T12:09:26.729Z,46.24
2018-07-20T12:11:55.624Z,45.81
2018-07-20T12:14:24.958Z,45.77
2018-07-20T12:16:54.039Z,46.63
2018-07-20T12:19:23.078Z,47.05
2018-07-20T12:21:52.173Z,47.03
2018-07-20T12:24:21.214Z,46.50
2018-07-20T12:26:50.015Z,45.46
2018-07-20T12:29:19.245Z,44.87
2018-07-20T12:31:48.305Z,43.59
2018-07-20T12:34:16.994Z,41.68
2018-07-20T12:36:46.214Z,42.58
2018-07-20T12:39:15.595Z,43.00
2018-07-20T12:41:44.446Z,43.02
2018-07-20T12:44:13.990Z,43.59
2018-07-20T12:46:43.111Z,44.13
2018-07-20T12:49:12.205Z,44.88
2018-07-20T12:51:41.417Z,44.42
2018-07-20T12:54:10.560Z,43.94
2018-07-20T12:56:40.303Z,43.60
2018-07-20T12:59:09.507Z,43.07
2018-07-20T13:01:38.370Z,43.91
2018-07-20T13:04:07.335Z,44.62
2018-07-20T13:06:37.492Z,43.23
2018-07-20T13:09:10.448Z,44.18
2018-07-20T13:11:39.865Z,43.95
2018-07-20T13:14:09.600Z,44.01
2018-07-20T13:16:39.741Z,44.25
2018-07-20T13:19:09.740Z,43.46
2018-07-20T13:21:45.674Z,43.88
2018-07-20T13:24:14.639Z,43.05
2018-07-20T13:26:43.642Z,43.85
2018-07-20T13:29:13.815Z,43.53
2018-07-20T13:31:42.907Z,43.56
2018-07-20T13:34:11.766Z,43.38
2018-07-20T13:36:41.170Z,43.62
2018-07-20T13:39:11.618Z,42.94
2018-07-20T13:41:41.075Z,43.68
2018-07-20T13:44:10.716Z,42.67
2018-07-20T13:46:39.838Z,43.32
2018-07-20T13:49:08.940Z,43.86
2018-07-20T13:51:38.304Z,44.64
2018-07-20T13:54:07.664Z,45.19
2018-07-20T13:56:36.715Z,44.56
2018-07-20T13:59:06.071Z,44.95
2018-07-20T14:01:35.211Z,45.71
2018-07-20T14:04:04.073Z,45.20
2018-07-20T14:06:33.071Z,45.52
2018-07-20T14:09:01.895Z,44.36
2018-07-20T14:11:30.979Z,45.09
2018-07-20T14:14:00.268Z,45.28
2018-07-20T14:16:29.024Z,44.86
2018-07-20T14:18:57.666Z,44.69
2018-07-20T14:21:26.967Z,45.96
2018-07-20T14:23:55.791Z,45.44
2018-07-20T14:26:24.821Z,45.69
2018-07-20T14:28:54.822Z,46.57
2018-07-20T14:31:24.047Z,45.81
2018-07-20T14:33:53.106Z,47.03
2018-07-20T14:36:22.530Z,46.46
2018-07-20T14:38:51.481Z,45.86
2018-07-20T14:41:20.459Z,46.06
2018-07-20T14:43:49.809Z,46.21
2018-07-20T14:46:19.004Z,46.48
2018-07-20T14:48:47.935Z,46.92
2018-07-20T14:51:16.848Z,47.37
2018-07-20T14:53:46.504Z,47.15
2018-07-20T14:56:15.581Z,47.31
2018-07-20T14:58:45.838Z,47.58
2018-07-20T15:01:15.094Z,48.22
2018-07-20T15:03:44.128Z,48.47
2018-07-20T15:06:13.513Z,48.49
2018-07-20T15:08:42.745Z,48.13
2018-07-20T15:11:11.563Z,48.50
2018-07-20T15:13:40.891Z,48.96
2018-07-20T15:16:09.999Z,48.31
2018-07-20T15:18:39.013Z,49.03
2018-07-20T15:21:08.122Z,49.36
2018-07-20T15:23:36.977Z,48.94
2018-07-20T15:26:05.941Z,48.27
2018-07-20T15:28:35.196Z,48.50
2018-07-20T15:31:04.174Z,48.88
2018-07-20T15:33:33.667Z,48.96
2018-07-20T15:36:02.696Z,50.14
2018-07-20T15:38:31.564Z,48.59
2018-07-20T15:41:00.665Z,48.82
2018-07-20T15:43:29.674Z,48.68
2018-07-20T15:46:05.966Z,49.18
2018-07-20T15:48:27.490Z,49.22
2018-07-20T15:50:56.656Z,49.28
2018-07-20T15:53:40.621Z,48.34
2018-07-20T15:55:54.614Z,48.86
2018-07-20T15:58:23.969Z,48.60
2018-07-20T16:00:52.971Z,48.55
2018-07-20T16:03:23.346Z,49.05
2018-07-20T16:05:52.660Z,49.12
2018-07-20T16:08:22.178Z,48.35
2018-07-20T16:10:51.939Z,48.25
2018-07-20T16:13:20.813Z,48.23
2018-07-20T16:15:50.278Z,48.16
2018-07-20T16:18:19.396Z,48.13
2018-07-20T16:20:48.678Z,48.11
2018-07-20T16:23:17.777Z,47.81
2018-07-20T16:25:46.990Z,48.63
2018-07-20T16:28:16.594Z,48.04
2018-07-20T16:30:45.459Z,47.38
2018-07-20T16:33:14.584Z,48.36
2018-07-20T16:35:43.923Z,48.29
2018-07-20T16:38:13.171Z,48.58
2018-07-20T16:40:42.161Z,49.49
2018-07-20T16:43:11.386Z,49.38
2018-07-20T16:45:40.439Z,49.06
2018-07-20T16:48:09.351Z,48.93
2018-07-20T16:50:38.509Z,49.17
2018-07-20T16:53:07.339Z,49.17
2018-07-20T16:55:36.415Z,49.59
2018-07-20T16:58:05.520Z,50.09
2018-07-20T17:00:35.344Z,50.29
2018-07-20T17:03:04.220Z,49.83
2018-07-20T17:05:33.264Z,51.01
2018-07-20T17:08:02.015Z,50.77
2018-07-20T17:10:31.053Z,50.91
2018-07-20T17:13:01.046Z,51.43
2018-07-20T17:15:30.027Z,52.24
2018-07-20T17:17:59.020Z,51.95
2018-07-20T17:20:28.135Z,51.67
2018-07-20T17:22:57.192Z,52.01
2018-07-20T17:25:26.517Z,51.67
2018-07-20T17:27:55.942Z,52.50
2018-07-20T17:30:25.808Z,52.96
2018-07-20T17:32:54.833Z,52.39
2018-07-20T17:35:24.330Z,52.84
2018-07-20T17:37:53.142Z,53.19
2018-07-20T17:40:22.709Z,53.19
2018-07-20T17:42:51.924Z,53.38
2018-07-20T17:45:21.025Z,54.01
2018-07-20T17:47:49.925Z,54.59
2018-07-20T17:50:19.433Z,54.50
2018-07-20T17:52:48.234Z,55.32
2018-07-20T17:55:17.284Z,55.41
2018-07-20T17:57:46.763Z,55.80
2018-07-20T18:00:15.809Z,56.15
2018-07-20T18:02:44.617Z,56.27
2018-07-20T18:05:14.843Z,57.04
2018-07-20T18:07:44.098Z,57.17
2018-07-20T18:10:13.626Z,57.48
2018-07-20T18:12:43.170Z,58.45
2018-07-20T18:15:12.148Z,58.58
2018-07-20T18:17:41.372Z,59.34
2018-07-20T18:20:11.588Z,59.85
2018-07-20T18:22:42.818Z,59.85
2018-07-20T18:25:13.403Z,60.56
2018-07-20T18:27:42.341Z,60.73
2018-07-20T18:30:11.484Z,60.39
2018-07-20T18:32:41.099Z,60.20
2018-07-20T18:35:10.663Z,60.35
2018-07-20T18:37:40.470Z,60.11
2018-07-20T18:40:09.888Z,60.02
2018-07-20T18:42:39.060Z,60.25
2018-07-20T18:45:08.695Z,59.87
2018-07-20T18:47:38.372Z,59.27
2018-07-20T18:50:08.572Z,58.97
2018-07-20T18:52:37.696Z,58.74
2018-07-20T18:55:06.858Z,58.50
2018-07-20T18:57:35.796Z,58.42
2018-07-20T19:00:05.242Z,57.88
2018-07-20T19:02:34.523Z,58.30
2018-07-20T19:05:03.982Z,58.03
2018-07-20T19:07:33.156Z,57.79
2018-07-20T19:10:02.506Z,57.55
2018-07-20T19:12:33.268Z,57.17
2018-07-20T19:15:02.257Z,58.12
2018-07-20T19:17:32.422Z,57.74
2018-07-20T19:20:01.361Z,57.51
2018-07-20T19:22:30.227Z,58.09
2018-07-20T19:24:59.352Z,58.39
2018-07-20T19:27:28.194Z,58.19
2018-07-20T19:29:58.281Z,58.10
2018-07-20T19:32:28.290Z,58.26
2018-07-20T19:34:57.359Z,57.92
2018-07-20T19:37:26.448Z,58.20
2018-07-20T19:39:55.248Z,58.33
2018-07-20T19:42:24.303Z,58.08
2018-07-20T19:44:53.351Z,58.70
2018-07-20T19:47:22.657Z,57.96
2018-07-20T19:49:51.504Z,57.90
2018-07-20T19:52:20.590Z,58.43
2018-07-20T19:54:50.371Z,58.57
2018-07-20T19:57:19.112Z,58.01
2018-07-20T19:59:47.912Z,58.05
2018-07-20T20:02:17.360Z,58.08
2018-07-20T20:04:46.907Z,57.87
2018-07-20T20:07:15.919Z,57.69
2018-07-20T20:09:45.654Z,57.46
2018-07-20T20:12:15.639Z,57.77
2018-07-20T20:14:44.637Z,57.17
2018-07-20T20:17:14.675Z,57.24
2018-07-20T20:19:43.745Z,57.37
2018-07-20T20:22:12.666Z,57.05
2018-07-20T20:24:41.804Z,57.15
2018-07-20T20:27:10.743Z,56.72
2018-07-20T20:29:39.726Z,56.71
2018-07-20T20:32:08.657Z,56.92
2018-07-20T20:34:38.323Z,56.60
2018-07-20T20:37:07.900Z,56.43
2018-07-20T20:39:37.033Z,56.92
2018-07-20T20:42:06.306Z,56.88
2018-07-20T20:44:35.334Z,56.99
2018-07-20T20:47:05.177Z,56.92
2018-07-20T20:49:34.154Z,56.90
2018-07-20T20:52:04.115Z,56.99
2018-07-20T20:54:33.100Z,57.27
2018-07-20T20:57:02.355Z,57.57
2018-07-20T20:59:31.152Z,57.48
2018-07-20T21:02:00.570Z,57.48
2018-07-20T21:04:30.016Z,57.80
2018-07-20T21:06:59.056Z,57.69
2018-07-20T21:09:28.281Z,57.96
2018-07-20T21:11:57.576Z,58.49
2018-07-20T21:14:26.655Z,59.09
2018-07-20T21:16:56.263Z,58.47
2018-07-20T21:19:25.833Z,58.45
2018-07-20T21:21:55.050Z,58.59
2018-07-20T21:24:23.981Z,58.70
2018-07-20T21:26:53.287Z,59.28
2018-07-20T21:29:22.237Z,60.03
2018-07-20T21:31:50.931Z,59.62
2018-07-20T21:34:19.966Z,60.04
2018-07-20T21:36:49.165Z,60.12
2018-07-20T21:39:18.184Z,60.18
2018-07-20T21:41:47.535Z,59.85
2018-07-20T21:44:16.595Z,59.67
2018-07-20T21:46:45.423Z,59.60
2018-07-20T21:49:14.159Z,59.09
2018-07-20T21:51:43.098Z,58.76
2018-07-20T21:54:13.459Z,58.82
2018-07-20T21:56:42.849Z,58.32
2018-07-20T21:59:11.728Z,58.47
2018-07-20T22:01:40.610Z,57.96
2018-07-20T22:04:10.538Z,57.82
2018-07-20T22:06:39.520Z,58.22
2018-07-20T22:09:10.260Z,58.37
2018-07-20T22:11:39.799Z,58.05
2018-07-20T22:14:09.335Z,58.19
2018-07-20T22:16:38.381Z,57.77
2018-07-20T22:19:07.573Z,57.89
2018-07-20T22:21:36.494Z,57.30
2018-07-20T22:24:05.455Z,57.06
2018-07-20T22:26:35.624Z,57.56
2018-07-20T22:29:05.181Z,57.17
2018-07-20T22:31:34.401Z,57.20
2018-07-20T22:34:03.599Z,56.93
2018-07-20T22:36:32.595Z,57.10
2018-07-20T22:39:08.361Z,56.70
2018-07-20T22:41:37.532Z,56.62
2018-07-20T22:44:06.834Z,56.42
2018-07-20T22:46:35.716Z,57.16
2018-07-20T22:49:05.743Z,57.21
2018-07-20T22:51:34.743Z,57.72
2018-07-20T22:54:03.944Z,57.90
2018-07-20T22:56:33.094Z,57.98
2018-07-20T22:59:02.436Z,58.28
2018-07-20T23:01:31.147Z,58.69
2018-07-20T23:03:59.790Z,58.40
2018-07-20T23:06:29.303Z,58.62
2018-07-20T23:08:58.484Z,58.22
2018-07-20T23:11:27.381Z,58.27
2018-07-20T23:13:57.335Z,58.22
2018-07-20T23:16:25.970Z,58.29
2018-07-20T23:18:55.067Z,58.13
2018-07-20T23:21:27.858Z,58.48
2018-07-20T23:23:57.789Z,58.13
2018-07-20T23:26:27.839Z,58.45
2018-07-20T23:28:56.848Z,58.39
2018-07-20T23:31:25.922Z,58.82
2018-07-20T23:33:55.371Z,58.39
2018-07-20T23:36:24.118Z,57.98
2018-07-20T23:38:52.942Z,58.35
2018-07-20T23:41:22.705Z,58.60
2018-07-20T23:43:51.604Z,58.86
2018-07-20T23:46:21.009Z,58.80
2018-07-20T23:48:50.410Z,59.02
2018-07-20T23:51:19.222Z,58.42
2018-07-20T23:53:48.371Z,58.60
2018-07-20T23:56:17.619Z,58.63
2018-07-20T23:58:46.672Z,58.67
